Time;durP1;ratioP1;P1;durP2;ratioP2;P2;SDS_P1;SDS_P2;PMS_P1;PMS_P2;Temp;Humidity;BMP_temperature;BMP_pressure;BME280_temperature;BME280_humidity;BME280_pressure;Samples;Min_cycle;Max_cycle;Signal;HPM_P1;HPM_P2
2022/11/27 00:00:41;;;;;;;18.25;6.95;;;6.80;99.90;;;;;;5020696;28;20386;-81
2022/11/27 00:03:06;;;;;;;21.52;6.78;;;6.80;99.90;;;;;;5036919;28;20044;-81
2022/11/27 00:05:32;;;;;;;16.13;6.82;;;6.60;99.90;;;;;;5037178;28;20498;-81
2022/11/27 00:07:57;;;;;;;23.15;8.23;;;6.70;99.90;;;;;;5038909;28;20522;-81
2022/11/27 00:10:23;;;;;;;18.58;6.93;;;6.60;99.90;;;;;;5037776;28;20037;-81
2022/11/27 00:12:49;;;;;;;11.93;6.47;;;6.60;99.90;;;;;;5036921;28;20463;-81
2022/11/27 00:15:14;;;;;;;22.38;7.40;;;6.60;99.90;;;;;;5037713;28;20049;-81
2022/11/27 00:17:40;;;;;;;19.70;6.25;;;6.40;99.90;;;;;;5037930;28;20053;-81
2022/11/27 00:20:06;;;;;;;20.55;6.90;;;6.60;99.90;;;;;;5021145;28;20509;-81
2022/11/27 00:22:32;;;;;;;15.27;6.78;;;6.60;99.90;;;;;;5036687;28;20052;-81
2022/11/27 00:24:57;;;;;;;19.23;6.15;;;6.50;99.90;;;;;;5037018;28;20041;-81
2022/11/27 00:27:23;;;;;;;21.85;7.18;;;6.30;99.90;;;;;;5037343;28;20041;-81
2022/11/27 00:29:49;;;;;;;17.77;6.82;;;6.40;99.90;;;;;;5036226;28;20044;-81
2022/11/27 00:32:14;;;;;;;18.90;7.40;;;6.60;99.90;;;;;;5037036;28;20533;-82
2022/11/27 00:34:40;;;;;;;24.30;7.07;;;6.30;99.90;;;;;;5036637;28;20037;-81
2022/11/27 00:37:06;;;;;;;22.15;6.45;;;6.50;99.90;;;;;;5036572;28;20037;-81
2022/11/27 00:39:32;;;;;;;23.60;7.93;;;6.50;99.90;;;;;;5036588;28;20041;-81
2022/11/27 00:41:57;;;;;;;21.00;7.10;;;6.50;99.90;;;;;;5036232;28;20037;-81
2022/11/27 00:44:23;;;;;;;18.45;6.53;;;6.20;99.90;;;;;;5036762;28;20044;-82
2022/11/27 00:46:48;;;;;;;13.63;6.10;;;6.60;99.90;;;;;;5036793;28;20090;-81
2022/11/27 00:49:14;;;;;;;15.25;6.78;;;6.30;99.90;;;;;;5035983;28;20045;-81
2022/11/27 00:51:40;;;;;;;19.08;6.95;;;6.50;99.90;;;;;;5058604;22;20486;-72
2022/11/27 00:54:07;;;;;;;19.75;6.03;;;6.50;99.90;;;;;;5055506;28;20037;-72
2022/11/27 00:56:35;;;;;;;19.73;7.60;;;6.50;99.90;;;;;;5056237;28;20037;-73
2022/11/27 00:59:03;;;;;;;19.55;7.03;;;6.60;99.90;;;;;;5038347;28;20580;-73
2022/11/27 01:01:32;;;;;;;23.35;6.85;;;6.20;99.90;;;;;;5038185;28;20043;-73
2022/11/27 01:03:58;;;;;;;13.15;6.35;;;6.60;99.90;;;;;;5021673;28;20052;-72
2022/11/27 01:06:25;;;;;;;15.40;6.75;;;6.40;99.90;;;;;;5022227;28;20045;-72
2022/11/27 01:08:50;;;;;;;19.25;6.82;;;6.30;99.90;;;;;;5056298;28;20072;-73
2022/11/27 01:11:21;;;;;;;20.02;6.53;;;6.20;99.90;;;;;;5055870;28;20037;-72
2022/11/27 01:13:47;;;;;;;14.75;6.70;;;6.50;99.90;;;;;;5055573;28;20128;-72
2022/11/27 01:16:16;;;;;;;18.10;6.57;;;6.50;99.90;;;;;;5055912;28;20032;-73
2022/11/27 01:18:43;;;;;;;12.00;6.07;;;6.20;99.90;;;;;;5056355;28;20076;-73
2022/11/27 01:21:10;;;;;;;26.73;7.88;;;6.30;99.90;;;;;;5038168;28;20415;-73
2022/11/27 01:23:36;;;;;;;13.93;6.55;;;6.40;99.90;;;;;;5037082;28;20549;-72
2022/11/27 01:26:03;;;;;;;17.00;7.35;;;6.40;99.90;;;;;;5054013;28;20037;-72
2022/11/27 01:28:29;;;;;;;17.33;6.35;;;6.20;99.90;;;;;;5036462;28;20052;-72
2022/11/27 01:30:55;;;;;;;11.88;5.95;;;6.20;99.90;;;;;;5019424;28;20033;-72
2022/11/27 01:33:21;;;;;;;14.40;6.20;;;6.40;99.90;;;;;;5053587;28;20044;-72
2022/11/27 01:35:58;;;;;;;14.85;5.82;;;6.50;99.90;;;;;;5035971;28;20048;-72
2022/11/27 01:38:25;;;;;;;18.80;5.95;;;6.20;99.90;;;;;;5053760;28;20029;-72
2022/11/27 01:41:11;;;;;;;17.67;6.30;;;6.40;99.90;;;;;;5037733;28;20120;-72
2022/11/27 01:44:01;;;;;;;20.50;7.30;;;6.50;99.90;;;;;;5055098;28;20170;-73
2022/11/27 01:46:38;;;;;;;17.02;7.40;;;6.50;99.90;;;;;;5044476;28;20059;-72
2022/11/27 01:49:09;;;;;;;15.02;6.03;;;6.50;99.90;;;;;;5055587;28;20449;-73
2022/11/27 01:51:39;;;;;;;14.70;6.35;;;6.40;99.90;;;;;;5054957;28;20410;-73
2022/11/27 01:54:06;;;;;;;16.88;6.93;;;6.40;99.90;;;;;;5020938;28;20045;-73
2022/11/27 01:56:32;;;;;;;17.63;7.50;;;6.40;99.90;;;;;;5037383;28;20036;-72
2022/11/27 01:58:58;;;;;;;21.10;6.90;;;6.40;99.90;;;;;;5055218;28;20033;-72
2022/11/27 02:01:25;;;;;;;13.18;6.47;;;6.20;99.90;;;;;;5055128;28;20522;-72
2022/11/27 02:03:52;;;;;;;11.75;5.82;;;6.20;99.90;;;;;;5054896;28;20045;-72
2022/11/27 02:06:18;;;;;;;13.20;6.20;;;6.40;99.90;;;;;;5036075;28;20068;-72
2022/11/27 02:08:43;;;;;;;16.00;5.63;;;6.20;99.90;;;;;;5054802;28;20037;-72
2022/11/27 02:11:19;;;;;;;15.25;6.03;;;6.20;99.90;;;;;;5020734;28;20044;-72
2022/11/27 02:13:53;;;;;;;17.38;6.13;;;6.20;99.90;;;;;;5054824;28;20116;-73
2022/11/27 02:16:48;;;;;;;11.68;5.40;;;6.30;99.90;;;;;;5037557;28;20044;-72
2022/11/27 02:19:40;;;;;;;18.13;6.72;;;6.30;99.90;;;;;;5037176;28;20120;-73
2022/11/27 02:22:21;;;;;;;11.57;6.03;;;6.20;99.90;;;;;;5055405;28;20491;-72
2022/11/27 02:25:23;;;;;;;16.40;6.80;;;6.30;99.90;;;;;;5054762;28;20049;-73
2022/11/27 02:28:21;;;;;;;14.88;5.85;;;6.10;99.90;;;;;;5055615;28;20073;-72
2022/11/27 02:30:55;;;;;;;14.85;6.20;;;6.10;99.90;;;;;;5036801;28;20061;-73
2022/11/27 02:33:22;;;;;;;15.40;6.38;;;6.20;99.90;;;;;;5054232;28;20041;-72
2022/11/27 02:35:55;;;;;;;13.57;6.85;;;6.10;99.90;;;;;;5053050;28;20037;-73
2022/11/27 02:38:27;;;;;;;18.58;7.15;;;6.10;99.90;;;;;;5033449;28;20052;-72
2022/11/27 02:41:16;;;;;;;17.15;6.57;;;6.00;99.90;;;;;;5035951;28;20064;-72
2022/11/27 02:43:45;;;;;;;20.00;7.20;;;6.20;99.90;;;;;;5034707;28;20392;-72
2022/11/27 02:46:12;;;;;;;15.00;6.18;;;6.30;99.90;;;;;;5035138;28;20052;-72
2022/11/27 02:48:46;;;;;;;19.65;6.65;;;6.00;99.90;;;;;;5035011;28;20100;-72
2022/11/27 02:51:13;;;;;;;17.70;7.47;;;6.00;99.90;;;;;;5016985;28;20049;-73
2022/11/27 02:53:47;;;;;;;19.70;6.68;;;6.10;99.90;;;;;;5036090;28;20364;-72
2022/11/27 02:56:17;;;;;;;12.93;6.57;;;6.20;99.90;;;;;;5021479;28;20073;-73
2022/11/27 02:58:46;;;;;;;16.83;7.10;;;6.10;99.90;;;;;;5046715;28;20065;-73
2022/11/27 03:01:14;;;;;;;15.38;6.32;;;6.00;99.90;;;;;;5058727;28;20041;-73
2022/11/27 03:03:46;;;;;;;18.52;7.43;;;6.00;99.90;;;;;;5040543;28;20094;-72
2022/11/27 03:06:18;;;;;;;16.30;7.07;;;6.10;99.90;;;;;;5058656;28;20406;-73
2022/11/27 03:08:56;;;;;;;18.20;7.70;;;6.10;99.90;;;;;;5058516;28;20087;-73
2022/11/27 03:11:22;;;;;;;16.42;7.38;;;6.40;99.90;;;;;;5040990;28;20037;-73
2022/11/27 03:13:52;;;;;;;20.45;8.20;;;6.20;99.90;;;;;;5039743;28;20049;-72
2022/11/27 03:16:29;;;;;;;16.63;7.03;;;6.30;99.90;;;;;;5056336;28;20036;-72
2022/11/27 03:19:13;;;;;;;15.10;7.47;;;6.10;99.90;;;;;;5023979;28;20045;-73
2022/11/27 03:22:00;;;;;;;18.92;7.18;;;6.10;99.90;;;;;;5040780;28;20052;-72
2022/11/27 03:24:28;;;;;;;19.25;7.15;;;6.10;99.90;;;;;;5040691;28;20037;-72
2022/11/27 03:26:53;;;;;;;18.13;7.88;;;6.20;99.90;;;;;;5024041;28;20132;-73
2022/11/27 03:29:24;;;;;;;16.15;7.32;;;6.20;99.90;;;;;;5058221;28;20124;-72
2022/11/27 03:31:50;;;;;;;17.42;7.32;;;6.20;99.90;;;;;;5057964;28;20044;-72
2022/11/27 03:34:16;;;;;;;15.45;6.57;;;6.40;99.90;;;;;;5057993;28;20037;-72
2022/11/27 03:36:42;;;;;;;15.90;7.30;;;6.40;99.90;;;;;;5057935;28;20094;-73
2022/11/27 03:39:07;;;;;;;16.75;6.95;;;6.10;99.90;;;;;;5040496;28;20041;-72
2022/11/27 03:41:42;;;;;;;17.40;7.10;;;6.10;99.90;;;;;;5057787;28;20037;-73
2022/11/27 03:44:25;;;;;;;11.85;6.57;;;6.20;99.90;;;;;;5057448;28;20041;-73
2022/11/27 03:47:08;;;;;;;13.90;7.97;;;6.40;99.90;;;;;;5040358;28;20120;-72
2022/11/27 03:49:51;;;;;;;16.67;6.53;;;6.20;99.90;;;;;;5057719;28;20085;-72
2022/11/27 03:52:32;;;;;;;17.93;6.70;;;6.40;99.90;;;;;;5057359;28;20119;-72
2022/11/27 03:55:15;;;;;;;14.75;7.68;;;6.30;99.90;;;;;;5057873;28;20107;-73
2022/11/27 03:57:56;;;;;;;14.85;6.70;;;6.10;99.90;;;;;;5057734;28;20087;-73
2022/11/27 04:00:22;;;;;;;13.55;6.45;;;6.10;99.90;;;;;;5039750;28;20041;-72
2022/11/27 04:02:52;;;;;;;16.42;6.22;;;6.30;99.90;;;;;;5057101;28;20097;-73
2022/11/27 04:05:19;;;;;;;16.23;7.43;;;6.00;99.90;;;;;;5057003;28;20041;-72
2022/11/27 04:07:45;;;;;;;15.15;6.55;;;6.20;99.90;;;;;;5039686;28;20083;-72
2022/11/27 04:10:12;;;;;;;15.38;7.05;;;6.10;99.90;;;;;;5057758;28;20037;-72
2022/11/27 04:12:37;;;;;;;16.25;7.25;;;6.00;99.90;;;;;;5038913;28;20083;-73
2022/11/27 04:15:04;;;;;;;19.83;7.72;;;6.00;99.90;;;;;;5040276;28;20037;-72
2022/11/27 04:17:30;;;;;;;16.55;6.82;;;6.10;99.90;;;;;;5039681;28;20486;-72
2022/11/27 04:19:55;;;;;;;13.38;7.03;;;6.00;99.90;;;;;;5057258;28;20040;-72
2022/11/27 04:22:21;;;;;;;18.33;7.47;;;6.10;99.90;;;;;;5039155;28;20044;-72
2022/11/27 04:24:47;;;;;;;14.52;6.25;;;5.90;99.90;;;;;;5039108;28;20131;-72
2022/11/27 04:27:12;;;;;;;16.67;6.72;;;5.80;99.90;;;;;;5038670;28;20040;-72
2022/11/27 04:29:38;;;;;;;13.75;6.00;;;5.90;99.90;;;;;;5039180;28;20037;-73
2022/11/27 04:32:04;;;;;;;12.23;5.65;;;5.90;99.90;;;;;;5056395;28;20863;-73
2022/11/27 04:34:30;;;;;;;13.57;6.30;;;6.00;99.90;;;;;;5054993;28;20041;-72
2022/11/27 04:36:56;;;;;;;17.65;6.28;;;5.80;99.90;;;;;;5056799;28;20028;-72
2022/11/27 04:39:22;;;;;;;15.18;7.15;;;6.00;99.90;;;;;;5039798;28;20404;-73
2022/11/27 04:41:48;;;;;;;13.07;6.95;;;6.00;99.90;;;;;;5056690;28;20441;-73
2022/11/27 04:44:13;;;;;;;13.00;6.65;;;5.80;99.90;;;;;;5022021;28;20043;-73
2022/11/27 04:46:39;;;;;;;12.73;7.10;;;5.70;99.90;;;;;;5038574;28;20090;-72
2022/11/27 04:49:05;;;;;;;9.82;5.95;;;5.70;99.90;;;;;;5056787;28;20037;-72
2022/11/27 04:51:30;;;;;;;12.02;5.85;;;5.80;99.90;;;;;;5038890;28;20150;-72
2022/11/27 04:53:56;;;;;;;14.82;5.00;;;5.80;99.90;;;;;;5055868;28;20039;-72
2022/11/27 04:56:22;;;;;;;15.30;5.78;;;6.00;99.90;;;;;;5054816;28;20056;-72
2022/11/27 04:58:48;;;;;;;18.23;7.07;;;5.80;99.90;;;;;;5058700;28;20179;-72
2022/11/27 05:01:14;;;;;;;15.32;5.90;;;6.10;99.90;;;;;;5057452;28;20079;-72
2022/11/27 05:03:39;;;;;;;16.35;6.35;;;5.70;99.90;;;;;;5021227;28;20112;-72
2022/11/27 05:06:05;;;;;;;14.07;6.43;;;6.00;99.90;;;;;;5056265;28;20099;-72
2022/11/27 05:08:32;;;;;;;10.90;5.45;;;6.00;99.90;;;;;;5055749;28;20395;-72
2022/11/27 05:11:06;;;;;;;18.85;5.95;;;5.80;99.90;;;;;;5020947;28;20047;-72
2022/11/27 05:13:31;;;;;;;13.43;5.40;;;5.90;99.90;;;;;;5037588;28;20037;-72
2022/11/27 05:15:57;;;;;;;16.33;5.75;;;5.90;99.90;;;;;;5037229;28;20040;-72
2022/11/27 05:18:23;;;;;;;10.07;4.68;;;5.80;99.90;;;;;;5037453;28;20041;-72
2022/11/27 05:21:07;;;;;;;13.98;5.85;;;6.10;99.90;;;;;;5037525;28;20037;-72
2022/11/27 05:23:34;;;;;;;16.98;6.32;;;6.00;99.90;;;;;;5054861;28;20036;-72
2022/11/27 05:26:00;;;;;;;16.17;6.43;;;5.90;99.90;;;;;;5037401;28;20506;-72
2022/11/27 05:28:26;;;;;;;12.30;5.68;;;5.80;99.90;;;;;;5036992;28;20045;-72
2022/11/27 05:30:51;;;;;;;12.32;5.80;;;5.90;99.90;;;;;;5020780;28;20403;-72
2022/11/27 05:33:17;;;;;;;18.00;6.30;;;6.00;99.90;;;;;;5054987;28;20082;-72
2022/11/27 05:35:44;;;;;;;15.18;5.90;;;6.00;99.90;;;;;;5055136;28;20037;-72
2022/11/27 05:38:11;;;;;;;17.27;5.72;;;5.80;99.90;;;;;;5036639;28;20075;-72
2022/11/27 05:40:37;;;;;;;13.50;5.18;;;5.90;99.90;;;;;;5036988;28;20037;-72
2022/11/27 05:43:03;;;;;;;15.02;6.13;;;5.70;99.90;;;;;;5036620;28;20049;-72
2022/11/27 05:45:28;;;;;;;12.13;5.55;;;5.90;99.90;;;;;;5054726;28;20048;-72
2022/11/27 05:47:54;;;;;;;13.13;5.70;;;5.90;99.90;;;;;;5037292;28;20040;-72
2022/11/27 05:50:20;;;;;;;13.05;5.38;;;5.80;99.90;;;;;;5037037;28;20045;-72
2022/11/27 05:52:45;;;;;;;12.65;5.18;;;5.90;99.90;;;;;;5054007;28;20176;-72
2022/11/27 05:55:11;;;;;;;13.52;5.35;;;5.60;99.90;;;;;;5054346;28;20411;-72
2022/11/27 05:57:36;;;;;;;13.55;5.38;;;5.60;99.90;;;;;;5036633;28;20195;-72
2022/11/27 06:00:03;;;;;;;13.90;5.20;;;5.50;99.90;;;;;;5055043;28;20577;-72
2022/11/27 06:02:29;;;;;;;9.18;5.28;;;5.70;99.90;;;;;;5054124;28;20045;-72
2022/11/27 06:04:54;;;;;;;10.90;5.25;;;5.50;99.90;;;;;;5036605;28;20033;-72
2022/11/27 06:07:20;;;;;;;10.43;5.38;;;5.80;99.90;;;;;;5054655;28;20540;-72
2022/11/27 06:09:45;;;;;;;15.02;5.65;;;5.60;99.90;;;;;;5054615;28;20100;-72
2022/11/27 06:12:11;;;;;;;14.98;5.20;;;5.50;99.90;;;;;;5035077;28;20037;-72
2022/11/27 06:14:36;;;;;;;15.40;5.60;;;5.70;99.90;;;;;;5034980;28;20048;-72
2022/11/27 06:17:03;;;;;;;17.25;5.20;;;5.40;99.90;;;;;;5055325;28;20040;-72
2022/11/27 06:19:29;;;;;;;10.93;5.95;;;5.60;99.90;;;;;;5053239;28;20037;-72
2022/11/27 06:21:54;;;;;;;13.85;5.15;;;5.60;99.90;;;;;;5052879;28;20063;-72
2022/11/27 06:24:20;;;;;;;12.48;5.82;;;5.60;99.90;;;;;;5052609;28;20482;-72
2022/11/27 06:26:46;;;;;;;15.63;5.45;;;5.70;99.90;;;;;;5053515;28;20069;-72
2022/11/27 06:29:12;;;;;;;12.73;4.55;;;5.60;99.90;;;;;;5055958;28;20045;-72
2022/11/27 06:31:38;;;;;;;10.93;5.15;;;5.60;99.90;;;;;;5056826;28;20033;-72
2022/11/27 06:34:04;;;;;;;14.50;5.80;;;5.80;99.90;;;;;;5057035;28;20080;-72
2022/11/27 06:36:33;;;;;;;11.40;5.63;;;5.80;99.90;;;;;;5041508;28;20045;-72
2022/11/27 06:38:59;;;;;;;16.55;5.93;;;5.90;99.90;;;;;;5059042;28;20043;-72
2022/11/27 06:41:26;;;;;;;9.15;4.97;;;5.60;99.90;;;;;;5058824;28;20041;-72
2022/11/27 06:43:53;;;;;;;10.65;5.07;;;5.80;99.90;;;;;;5024470;28;20098;-72
2022/11/27 06:46:20;;;;;;;12.77;5.88;;;5.50;99.90;;;;;;5041067;28;20051;-72
2022/11/27 06:48:49;;;;;;;9.93;5.47;;;5.70;99.90;;;;;;5041151;28;20036;-72
2022/11/27 06:53:43;;;;;;;11.30;5.03;;;5.50;99.90;;;;;;5119303;22;20058;-81
2022/11/27 06:56:14;;;;;;;10.07;4.75;;;5.60;99.90;;;;;;5095645;28;20036;-81
2022/11/27 06:58:40;;;;;;;14.68;6.25;;;5.50;99.90;;;;;;5079164;28;20035;-81
2022/11/27 07:01:09;;;;;;;15.73;5.30;;;5.60;99.90;;;;;;5097497;28;20114;-81
2022/11/27 07:03:35;;;;;;;14.25;4.93;;;5.60;99.90;;;;;;5095021;28;20072;-81
2022/11/27 07:06:06;;;;;;;13.02;5.05;;;5.70;99.90;;;;;;5095516;28;20578;-81
2022/11/27 07:08:33;;;;;;;14.57;5.85;;;5.80;99.90;;;;;;5096451;28;20169;-81
2022/11/27 07:11:04;;;;;;;14.50;6.50;;;5.70;99.90;;;;;;5095195;28;20036;-81
2022/11/27 07:13:30;;;;;;;17.50;7.78;;;5.50;99.90;;;;;;5095153;28;20098;-81
2022/11/27 07:16:05;;;;;;;12.98;7.10;;;5.70;99.90;;;;;;5078078;28;20062;-81
2022/11/27 07:18:34;;;;;;;14.65;5.85;;;5.60;99.90;;;;;;5095108;28;20044;-82
2022/11/27 07:21:00;;;;;;;11.80;5.03;;;5.50;99.90;;;;;;5095258;28;20149;-81
2022/11/27 07:23:25;;;;;;;13.35;4.75;;;5.60;99.90;;;;;;5077830;28;20086;-81
2022/11/27 07:25:51;;;;;;;12.52;5.18;;;5.50;99.90;;;;;;5095745;28;20044;-81
2022/11/27 07:28:17;;;;;;;13.95;5.32;;;5.60;99.90;;;;;;5078454;28;20040;-81
2022/11/27 07:30:42;;;;;;;14.20;4.65;;;5.60;99.90;;;;;;5078420;28;20100;-81
2022/11/27 07:33:08;;;;;;;9.38;5.13;;;5.60;99.90;;;;;;5094885;28;20036;-81
2022/11/27 07:35:33;;;;;;;14.20;5.63;;;5.60;99.90;;;;;;5094999;28;20089;-81
2022/11/27 07:37:59;;;;;;;14.98;5.78;;;5.60;99.90;;;;;;5095001;28;20039;-81
2022/11/27 07:40:24;;;;;;;10.25;4.63;;;5.70;99.90;;;;;;5077185;28;20509;-81
2022/11/27 07:42:50;;;;;;;11.20;5.90;;;5.90;99.90;;;;;;5094156;28;20067;-81
2022/11/27 07:45:15;;;;;;;14.35;5.30;;;5.60;99.90;;;;;;5094270;28;20040;-81
2022/11/27 07:47:41;;;;;;;14.45;5.63;;;5.90;99.90;;;;;;5076894;28;20036;-81
2022/11/27 07:50:08;;;;;;;13.93;5.20;;;5.80;99.90;;;;;;5094052;28;20498;-81
2022/11/27 07:52:35;;;;;;;10.85;5.55;;;5.80;99.90;;;;;;5076623;28;20036;-81
2022/11/27 07:55:01;;;;;;;10.73;5.22;;;5.70;99.90;;;;;;5094096;28;20063;-81
2022/11/27 07:57:27;;;;;;;12.88;6.95;;;5.90;99.90;;;;;;5093859;28;20036;-80
2022/11/27 07:59:53;;;;;;;12.18;6.45;;;5.90;99.90;;;;;;5077365;28;20036;-79
2022/11/27 08:02:18;;;;;;;10.93;6.05;;;5.90;99.90;;;;;;5093799;28;20044;-80
2022/11/27 08:04:44;;;;;;;10.32;5.85;;;5.80;99.90;;;;;;5093910;28;20044;-79
2022/11/27 08:07:09;;;;;;;9.10;5.40;;;5.70;99.90;;;;;;5078095;28;20090;-80
2022/11/27 08:09:36;;;;;;;12.18;6.38;;;5.80;99.90;;;;;;5077354;28;20051;-80
2022/11/27 08:12:02;;;;;;;11.20;5.38;;;5.80;99.90;;;;;;5076722;28;20411;-79
2022/11/27 08:14:28;;;;;;;10.43;5.90;;;6.00;99.90;;;;;;5093308;28;20040;-79
2022/11/27 08:16:53;;;;;;;12.63;5.78;;;6.00;99.90;;;;;;5093406;28;20043;-80
2022/11/27 08:19:19;;;;;;;12.18;5.95;;;5.90;99.90;;;;;;5077908;28;20040;-80
2022/11/27 08:21:45;;;;;;;12.43;5.45;;;5.90;99.90;;;;;;5095490;28;20103;-80
2022/11/27 08:24:10;;;;;;;20.42;6.45;;;5.90;99.90;;;;;;5094410;28;20510;-80
2022/11/27 08:26:36;;;;;;;16.40;6.57;;;5.80;99.90;;;;;;5077245;28;20032;-80
2022/11/27 08:29:02;;;;;;;15.50;6.25;;;6.10;99.90;;;;;;5076627;28;20554;-80
2022/11/27 08:31:28;;;;;;;14.60;6.57;;;6.10;99.90;;;;;;5094169;28;20047;-80
2022/11/27 08:33:53;;;;;;;8.77;5.10;;;6.10;99.90;;;;;;5077725;28;20040;-80
2022/11/27 08:36:19;;;;;;;15.23;7.15;;;6.10;99.90;;;;;;5094054;28;20036;-80
2022/11/27 08:38:45;;;;;;;20.90;6.13;;;6.10;99.90;;;;;;5100408;28;20032;-80
2022/11/27 08:41:11;;;;;;;17.30;5.93;;;5.90;99.90;;;;;;5105526;28;20051;-81
2022/11/27 08:43:36;;;;;;;11.38;6.07;;;6.00;99.90;;;;;;5099557;28;20127;-80
2022/11/27 08:46:04;;;;;;;11.52;5.72;;;6.00;99.90;;;;;;5097718;28;20043;-81
2022/11/27 08:48:29;;;;;;;16.65;6.07;;;6.20;99.90;;;;;;5088866;28;20039;-81
2022/11/27 08:50:55;;;;;;;12.27;5.55;;;6.30;99.90;;;;;;5091536;28;20122;-80
2022/11/27 08:53:20;;;;;;;13.80;5.30;;;6.20;99.90;;;;;;5080611;28;20072;-81
2022/11/27 08:55:46;;;;;;;10.95;5.85;;;6.20;99.90;;;;;;5080456;28;20071;-79
2022/11/27 08:58:12;;;;;;;15.02;5.90;;;6.00;99.90;;;;;;5079887;28;20040;-82
2022/11/27 09:00:38;;;;;;;12.00;5.68;;;6.10;99.90;;;;;;5094520;28;20401;-82
2022/11/27 09:03:04;;;;;;;14.65;5.20;;;6.00;99.90;;;;;;5093459;28;20382;-79
2022/11/27 09:05:31;;;;;;;13.00;6.15;;;6.00;99.90;;;;;;5078230;28;20048;-80
2022/11/27 09:07:58;;;;;;;14.93;6.32;;;6.10;99.90;;;;;;5096338;28;20116;-81
2022/11/27 09:10:24;;;;;;;11.40;6.13;;;6.20;99.90;;;;;;5096359;28;20455;-80
2022/11/27 09:12:50;;;;;;;13.93;6.55;;;6.10;99.90;;;;;;5094930;28;20036;-80
2022/11/27 09:15:17;;;;;;;14.48;6.45;;;6.10;99.90;;;;;;5076728;28;20046;-80
2022/11/27 09:17:42;;;;;;;13.05;6.07;;;6.10;99.90;;;;;;5094642;28;20050;-80
2022/11/27 09:20:09;;;;;;;10.90;5.63;;;5.90;99.90;;;;;;5094907;28;20035;-80
2022/11/27 09:22:35;;;;;;;12.23;6.10;;;6.10;99.90;;;;;;5093043;28;20059;-80
2022/11/27 09:25:01;;;;;;;10.38;6.00;;;6.10;99.90;;;;;;5078284;28;20043;-80
2022/11/27 09:27:27;;;;;;;14.75;6.65;;;6.00;99.90;;;;;;5095517;28;20068;-80
2022/11/27 09:29:52;;;;;;;11.40;5.95;;;6.00;99.90;;;;;;5077714;28;20036;-81
2022/11/27 09:32:18;;;;;;;19.70;8.00;;;6.10;99.90;;;;;;5077248;28;20032;-80
2022/11/27 09:34:43;;;;;;;12.27;6.00;;;6.10;99.90;;;;;;5077400;28;20040;-79
2022/11/27 09:37:10;;;;;;;12.25;5.45;;;6.10;99.90;;;;;;5075647;28;20043;-79
2022/11/27 09:39:35;;;;;;;12.55;6.60;;;6.00;99.90;;;;;;5091977;28;20036;-79
2022/11/27 09:42:04;;;;;;;15.63;6.13;;;6.20;99.90;;;;;;5091483;28;20044;-78
2022/11/27 09:44:45;;;;;;;15.40;7.15;;;6.10;99.90;;;;;;5074295;28;20075;-79
2022/11/27 09:47:33;;;;;;;12.48;6.70;;;6.10;99.90;;;;;;5091425;28;20071;-81
2022/11/27 09:50:26;;;;;;;11.80;6.50;;;6.20;99.90;;;;;;5091412;28;20054;-80
2022/11/27 09:53:36;;;;;;;13.65;7.15;;;6.30;99.90;;;;;;5090778;28;20032;-80
2022/11/27 09:56:05;;;;;;;13.13;7.43;;;6.00;99.90;;;;;;5091539;28;20040;-80
2022/11/27 09:58:39;;;;;;;11.60;6.63;;;6.00;99.90;;;;;;5091558;28;20160;-81
2022/11/27 10:01:14;;;;;;;13.68;6.10;;;6.20;99.90;;;;;;5091175;28;20051;-80
2022/11/27 10:03:41;;;;;;;13.20;7.20;;;6.10;99.90;;;;;;5073675;28;20039;-80
2022/11/27 10:06:30;;;;;;;13.25;7.75;;;6.00;99.90;;;;;;5091551;28;20115;-81
2022/11/27 10:09:19;;;;;;;17.83;7.45;;;6.20;99.90;;;;;;5091818;28;20040;-81
2022/11/27 10:11:55;;;;;;;15.27;6.28;;;6.00;99.90;;;;;;5091676;28;20047;-81
2022/11/27 10:14:39;;;;;;;16.00;7.20;;;6.10;99.90;;;;;;5092474;28;20505;-80
2022/11/27 10:17:16;;;;;;;;;;;6.10;99.90;;;;;;5081967;28;20048;-79
2022/11/27 10:19:47;;;;;;;11.32;6.15;;;6.20;99.90;;;;;;5075923;28;19916;-78
2022/11/27 10:22:35;;;;;;;15.80;6.53;;;6.10;99.90;;;;;;5075081;28;20067;-79
2022/11/27 10:25:30;;;;;;;13.35;6.50;;;6.30;99.90;;;;;;5074919;28;20506;-79
2022/11/27 10:28:27;;;;;;;17.52;6.72;;;6.30;99.90;;;;;;5084624;28;20044;-78
2022/11/27 10:31:17;;;;;;;11.15;6.47;;;6.10;99.90;;;;;;5092016;28;20040;-79
2022/11/27 10:33:49;;;;;;;13.20;7.20;;;6.20;99.90;;;;;;5074744;28;20047;-80
2022/11/27 10:36:24;;;;;;;17.23;7.28;;;6.30;99.90;;;;;;5091880;28;20040;-80
2022/11/27 10:38:51;;;;;;;11.20;6.63;;;6.10;99.90;;;;;;5092634;28;20450;-80
2022/11/27 10:41:23;;;;;;;14.63;7.65;;;6.10;99.90;;;;;;5092459;28;20055;-80
2022/11/27 10:43:53;;;;;;;16.38;7.20;;;6.00;99.90;;;;;;5092793;28;20101;-81
2022/11/27 10:46:27;;;;;;;14.15;7.18;;;6.40;99.90;;;;;;5092971;28;20596;-80
2022/11/27 10:48:52;;;;;;;19.63;8.30;;;6.10;99.90;;;;;;5077038;28;20062;-80
2022/11/27 10:51:23;;;;;;;16.63;8.05;;;6.00;99.90;;;;;;5076095;28;20036;-80
2022/11/27 10:53:52;;;;;;;16.10;7.45;;;6.20;99.90;;;;;;5075563;28;20040;-80
2022/11/27 10:56:36;;;;;;;13.45;6.82;;;6.20;99.90;;;;;;5079273;28;20057;-81
2022/11/27 10:59:07;;;;;;;12.90;6.95;;;6.20;99.90;;;;;;5080374;28;20035;-80
2022/11/27 11:01:47;;;;;;;12.80;7.00;;;6.10;99.90;;;;;;5096293;28;20044;-79
2022/11/27 11:04:18;;;;;;;15.10;7.80;;;6.20;99.90;;;;;;5094769;28;20071;-78
2022/11/27 11:06:47;;;;;;;19.00;8.02;;;5.90;99.90;;;;;;5097169;28;20036;-79
2022/11/27 11:09:34;;;;;;;15.32;7.88;;;6.20;99.90;;;;;;5095591;28;20130;-78
2022/11/27 11:12:19;;;;;;;12.02;7.68;;;6.20;99.90;;;;;;5077777;28;20036;-78
2022/11/27 11:14:53;;;;;;;10.75;6.97;;;6.30;99.90;;;;;;5079101;28;20036;-78
2022/11/27 11:17:39;;;;;;;12.15;7.40;;;6.00;99.90;;;;;;5100760;28;20507;-80
2022/11/27 11:20:34;;;;;;;19.88;8.30;;;6.00;99.90;;;;;;5100748;28;20040;-78
2022/11/27 11:23:00;;;;;;;14.98;7.72;;;6.40;99.90;;;;;;5080826;28;20051;-78
2022/11/27 11:25:25;;;;;;;12.52;7.93;;;6.10;99.90;;;;;;5106671;28;20024;-79
2022/11/27 11:27:51;;;;;;;15.07;7.22;;;6.20;99.90;;;;;;5110078;28;20070;-79
2022/11/27 11:30:23;;;;;;;16.85;8.18;;;6.20;99.90;;;;;;5095501;28;20051;-78
2022/11/27 11:32:50;;;;;;;13.65;7.70;;;6.10;99.90;;;;;;5096687;28;20520;-80
2022/11/27 11:35:24;;;;;;;16.70;8.48;;;6.30;99.90;;;;;;5082181;28;20089;-79
2022/11/27 11:37:51;;;;;;;11.85;7.88;;;6.10;99.90;;;;;;5098173;28;20096;-80
2022/11/27 11:40:22;;;;;;;15.82;8.15;;;6.20;99.90;;;;;;5097247;28;20059;-80
2022/11/27 11:43:12;;;;;;;13.95;7.85;;;6.30;99.90;;;;;;5100360;28;20044;-78
2022/11/27 11:45:47;;;;;;;14.65;7.90;;;6.40;99.90;;;;;;5098096;28;20047;-79
2022/11/27 11:48:22;;;;;;;15.48;7.38;;;6.50;99.90;;;;;;5084679;28;20043;-79
2022/11/27 11:50:54;;;;;;;17.42;7.68;;;6.10;99.90;;;;;;5084206;28;20059;-79
2022/11/27 11:53:34;;;;;;;15.07;7.00;;;6.10;99.90;;;;;;5099211;28;20123;-79
2022/11/27 11:56:22;;;;;;;15.70;8.45;;;6.30;99.90;;;;;;5084248;28;20032;-81
2022/11/27 11:59:26;;;;;;;17.73;7.93;;;6.20;99.90;;;;;;5099854;28;20458;-79
2022/11/27 12:02:06;;;;;;;11.90;7.40;;;6.20;99.90;;;;;;5060926;28;20051;-80
2022/11/27 12:04:51;;;;;;;16.02;7.90;;;6.50;99.90;;;;;;5099559;28;20395;-79
2022/11/27 12:07:33;;;;;;;13.50;8.10;;;6.50;99.90;;;;;;5099863;28;20044;-80
2022/11/27 12:10:20;;;;;;;13.00;7.78;;;6.20;99.90;;;;;;5098478;28;20068;-79
2022/11/27 12:12:48;;;;;;;18.33;8.38;;;6.50;99.90;;;;;;5080780;28;20482;-79
2022/11/27 12:16:03;;;;;;;15.32;8.43;;;6.20;99.90;;;;;;5098823;28;20135;-79
2022/11/27 12:18:50;;;;;;;14.95;7.72;;;6.50;99.90;;;;;;5073097;28;20134;-79
2022/11/27 12:21:25;;;;;;;16.38;8.00;;;6.30;99.90;;;;;;5095415;28;20044;-79
2022/11/27 12:24:10;;;;;;;18.13;8.93;;;6.50;99.90;;;;;;5095402;28;20417;-79
2022/11/27 12:26:47;;;;;;;16.60;8.68;;;6.60;99.90;;;;;;5095060;28;20390;-79
2022/11/27 12:29:47;;;;;;;15.15;7.68;;;6.40;99.90;;;;;;5079445;28;20048;-78
2022/11/27 12:32:25;;;;;;;13.98;7.38;;;6.50;99.90;;;;;;5078647;28;20043;-79
2022/11/27 12:35:24;;;;;;;16.88;7.40;;;6.60;99.90;;;;;;5095553;28;20044;-79
2022/11/27 12:37:52;;;;;;;15.00;7.50;;;6.60;99.90;;;;;;5098110;28;20039;-79
2022/11/27 12:40:45;;;;;;;17.33;8.43;;;6.70;99.90;;;;;;5079838;28;20131;-80
2022/11/27 12:43:24;;;;;;;13.90;8.23;;;6.40;99.90;;;;;;5095544;28;20135;-79
2022/11/27 12:45:58;;;;;;;12.70;8.18;;;6.30;99.90;;;;;;5096013;28;20097;-79
2022/11/27 12:48:33;;;;;;;15.93;7.97;;;6.70;99.90;;;;;;5078041;28;20085;-79
2022/11/27 12:51:11;;;;;;;15.10;7.60;;;6.70;99.90;;;;;;5078766;28;20074;-80
2022/11/27 12:53:55;;;;;;;15.38;8.57;;;6.70;99.90;;;;;;5083491;22;20068;-71
2022/11/27 12:56:49;;;;;;;11.50;7.47;;;6.70;99.90;;;;;;5068641;28;20047;-72
2022/11/27 12:59:20;;;;;;;14.15;7.13;;;6.60;99.90;;;;;;5070041;28;20052;-71
2022/11/27 13:02:12;;;;;;;13.65;8.23;;;6.60;99.90;;;;;;5084806;28;20036;-70
2022/11/27 13:04:56;;;;;;;14.27;7.32;;;6.50;99.90;;;;;;5058606;28;20063;-72
2022/11/27 13:07:38;;;;;;;12.57;7.53;;;6.50;99.90;;;;;;5062985;28;20412;-71
2022/11/27 13:10:30;;;;;;;11.97;7.20;;;6.60;99.90;;;;;;5079539;28;20040;-70